createdAt,value
2023-01-29T00:00:44.804Z,102450.22
2023-01-29T00:02:48.076Z,102448.50
2023-01-29T00:04:52.577Z,102445.91
2023-01-29T00:06:55.880Z,102445.03
2023-01-29T00:08:58.943Z,102442.47
2023-01-29T00:11:02.669Z,102439.88
2023-01-29T00:13:05.691Z,102435.56
2023-01-29T00:15:09.371Z,102441.59
2023-01-29T00:17:12.488Z,102443.31
2023-01-29T00:19:15.534Z,102434.66
2023-01-29T00:21:22.027Z,102426.06
2023-01-29T00:23:25.446Z,102413.16
2023-01-29T00:25:28.528Z,102405.38
2023-01-29T00:27:31.603Z,102398.50
2023-01-29T00:29:34.747Z,102394.19
2023-01-29T00:31:38.154Z,102400.22
2023-01-29T00:33:43.432Z,102389.88
2023-01-29T00:35:46.519Z,102384.69
2023-01-29T00:37:50.921Z,102387.28
2023-01-29T00:39:54.379Z,102388.09
2023-01-29T00:42:11.282Z,102401.88
2023-01-29T00:44:32.172Z,102394.13
2023-01-29T00:46:36.030Z,102395.00
2023-01-29T00:48:39.291Z,102403.63
2023-01-29T00:50:42.449Z,102406.19
2023-01-29T00:52:45.920Z,102398.44
2023-01-29T00:54:50.438Z,102403.63
2023-01-29T00:56:53.588Z,102402.75
2023-01-29T00:58:57.111Z,102408.78
2023-01-29T01:01:01.174Z,102415.66
2023-01-29T01:03:06.390Z,102413.94
2023-01-29T01:05:14.248Z,102410.50
2023-01-29T01:07:17.456Z,102406.19
2023-01-29T01:09:38.149Z,102412.22
2023-01-29T01:11:42.753Z,102401.88
2023-01-29T01:13:45.910Z,102404.47
2023-01-29T01:15:49.093Z,102403.59
2023-01-29T01:17:56.267Z,102402.72
2023-01-29T01:19:59.459Z,102408.75
2023-01-29T01:22:04.965Z,102405.31
2023-01-29T01:24:08.306Z,102407.91
2023-01-29T01:26:11.919Z,102405.31
2023-01-29T01:28:16.534Z,102412.19
2023-01-29T01:30:19.940Z,102419.09
2023-01-29T01:32:23.181Z,102426.88
2023-01-29T01:34:27.124Z,102415.66
2023-01-29T01:36:32.304Z,102415.66
2023-01-29T01:38:35.449Z,102406.16
2023-01-29T01:40:38.904Z,102404.44
2023-01-29T01:42:42.297Z,102417.38
2023-01-29T01:45:10.319Z,102409.59
2023-01-29T01:47:13.909Z,102408.75
2023-01-29T01:49:21.744Z,102404.41
2023-01-29T01:51:27.421Z,102400.09
2023-01-29T01:53:38.463Z,102404.41
2023-01-29T01:55:46.715Z,102407.00
2023-01-29T01:57:54.021Z,102401.81
2023-01-29T02:00:10.091Z,102400.97
2023-01-29T02:02:36.658Z,102404.41
2023-01-29T02:05:06.374Z,102394.91
2023-01-29T02:07:30.976Z,102396.63
2023-01-29T02:09:40.328Z,102399.22
2023-01-29T02:11:43.531Z,102392.31
2023-01-29T02:13:53.570Z,102395.75
2023-01-29T02:16:01.783Z,102394.91
2023-01-29T02:18:06.453Z,102390.59
2023-01-29T02:20:19.001Z,102389.72
2023-01-29T02:22:43.255Z,102394.91
2023-01-29T02:25:10.584Z,102388.00
2023-01-29T02:27:16.485Z,102379.34
2023-01-29T02:29:27.275Z,102378.50
2023-01-29T02:31:38.410Z,102375.91
2023-01-29T02:33:53.286Z,102376.75
2023-01-29T02:36:04.872Z,102374.16
2023-01-29T02:38:18.887Z,102370.72
2023-01-29T02:40:31.563Z,102357.75
2023-01-29T02:42:39.837Z,102357.75
2023-01-29T02:44:53.299Z,102363.78
2023-01-29T02:47:02.356Z,102356.00
2023-01-29T02:49:14.676Z,102358.59
2023-01-29T02:51:21.896Z,102353.41
2023-01-29T02:53:30.874Z,102349.97
2023-01-29T02:55:39.781Z,102356.00
2023-01-29T02:57:45.850Z,102337.88
2023-01-29T02:59:55.997Z,102347.38
2023-01-29T03:02:05.169Z,102337.88
2023-01-29T03:04:14.579Z,102334.41
2023-01-29T03:06:22.415Z,102325.78
2023-01-29T03:08:42.867Z,102320.59
2023-01-29T03:10:52.037Z,102318.88
2023-01-29T03:13:00.342Z,102316.25
2023-01-29T03:15:14.139Z,102311.09
2023-01-29T03:17:25.441Z,102299.88
2023-01-29T03:19:36.296Z,102308.50
2023-01-29T03:21:55.252Z,102299.84
2023-01-29T03:24:18.917Z,102305.91
2023-01-29T03:26:41.444Z,102301.56
2023-01-29T03:29:03.945Z,102291.22
2023-01-29T03:31:31.019Z,102296.41
2023-01-29T03:33:43.751Z,102302.47
2023-01-29T03:35:53.141Z,102293.00
2023-01-29T03:37:56.925Z,102294.72
2023-01-29T03:40:00.198Z,102299.88
2023-01-29T03:42:11.828Z,102294.72
2023-01-29T03:44:20.293Z,102300.75
2023-01-29T03:46:31.500Z,102300.72
2023-01-29T03:48:37.985Z,102291.25
2023-01-29T03:50:53.981Z,102292.97
2023-01-29T03:53:05.488Z,102294.72
2023-01-29T03:55:16.375Z,102296.41
2023-01-29T03:57:28.946Z,102298.13
2023-01-29T03:59:38.090Z,102293.81
2023-01-29T04:01:54.753Z,102287.78
2023-01-29T04:04:04.563Z,102288.66
2023-01-29T04:06:13.098Z,102287.81
2023-01-29T04:08:31.354Z,102284.38
2023-01-29T04:10:40.235Z,102284.38
2023-01-29T04:12:48.034Z,102278.38
2023-01-29T04:14:54.664Z,102278.38
2023-01-29T04:17:03.210Z,102284.44
2023-01-29T04:19:21.865Z,102282.72
2023-01-29T04:21:26.798Z,102273.25
2023-01-29T04:23:29.931Z,102281.03
2023-01-29T04:25:43.868Z,102284.47
2023-01-29T04:27:58.609Z,102280.19
2023-01-29T04:30:18.355Z,102271.56
2023-01-29T04:32:32.174Z,102277.59
2023-01-29T04:34:49.475Z,102277.59
2023-01-29T04:37:03.659Z,102275.03
2023-01-29T04:39:14.260Z,102286.25
2023-01-29T04:41:24.950Z,102287.09
2023-01-29T04:43:31.558Z,102280.22
2023-01-29T04:45:45.436Z,102291.44
2023-01-29T04:47:59.219Z,102290.56
2023-01-29T04:50:11.106Z,102295.75
2023-01-29T04:52:22.764Z,102290.56
2023-01-29T04:54:35.954Z,102294.00
2023-01-29T04:56:49.395Z,102302.63
2023-01-29T04:58:57.468Z,102294.88
2023-01-29T05:01:01.955Z,102291.44
2023-01-29T05:03:09.756Z,102287.97
2023-01-29T05:05:15.955Z,102288.84
2023-01-29T05:07:20.561Z,102281.09
2023-01-29T05:09:26.380Z,102267.31
2023-01-29T05:11:32.182Z,102276.78
2023-01-29T05:13:40.147Z,102275.94
2023-01-29T05:15:47.718Z,102263.88
2023-01-29T05:17:50.990Z,102257.84
2023-01-29T05:19:57.179Z,102263.00
2023-01-29T05:22:01.597Z,102260.41
2023-01-29T05:24:10.141Z,102260.41
2023-01-29T05:26:30.563Z,102269.03
2023-01-29T05:28:34.617Z,102256.97
2023-01-29T05:30:40.078Z,102263.88
2023-01-29T05:32:43.268Z,102269.91
2023-01-29T05:34:46.796Z,102269.03
2023-01-29T05:36:51.394Z,102254.38
2023-01-29T05:38:54.567Z,102251.78
2023-01-29T05:40:59.740Z,102250.06
2023-01-29T05:43:02.893Z,102241.44
2023-01-29T05:45:07.042Z,102235.41
2023-01-29T05:47:10.174Z,102254.38
2023-01-29T05:49:13.937Z,102255.25
2023-01-29T05:51:17.059Z,102269.03
2023-01-29T05:53:21.827Z,102268.19
2023-01-29T05:55:24.980Z,102264.75
2023-01-29T05:57:28.143Z,102267.34
2023-01-29T05:59:31.963Z,102263.91
2023-01-29T06:01:35.219Z,102256.16
2023-01-29T06:03:38.426Z,102256.13
2023-01-29T06:05:41.852Z,102247.53
2023-01-29T06:07:46.170Z,102248.38
2023-01-29T06:09:50.687Z,102250.09
2023-01-29T06:11:53.835Z,102259.56
2023-01-29T06:13:57.061Z,102247.50
2023-01-29T06:16:00.267Z,102228.53
2023-01-29T06:18:03.502Z,102234.56
2023-01-29T06:20:07.791Z,102224.22
2023-01-29T06:22:11.020Z,102221.66
2023-01-29T06:24:14.446Z,102229.41
2023-01-29T06:26:18.998Z,102225.97
2023-01-29T06:28:22.147Z,102215.59
2023-01-29T06:30:25.325Z,102206.97
2023-01-29T06:32:29.063Z,102194.03
2023-01-29T06:34:32.202Z,102198.34
2023-01-29T06:36:35.358Z,102191.47
2023-01-29T06:38:38.523Z,102194.94
2023-01-29T06:40:41.638Z,102188.03
2023-01-29T06:42:46.277Z,102182.00
2023-01-29T06:44:49.574Z,102193.22
2023-01-29T06:46:52.758Z,102201.84
2023-01-29T06:48:58.481Z,102206.16
2023-01-29T06:51:03.650Z,102194.94
2023-01-29T06:53:06.766Z,102185.47
2023-01-29T06:55:10.874Z,102183.72
2023-01-29T06:57:14.013Z,102182.88
2023-01-29T06:59:18.517Z,102185.44
2023-01-29T07:01:35.184Z,102189.75
2023-01-29T07:03:39.037Z,102186.28
2023-01-29T07:05:42.176Z,102175.94
2023-01-29T07:07:45.356Z,102176.81
2023-01-29T07:09:48.607Z,102179.41
2023-01-29T07:11:51.800Z,102185.44
2023-01-29T07:13:54.982Z,102186.28
2023-01-29T07:16:00.892Z,102197.50
2023-01-29T07:18:11.900Z,102193.19
2023-01-29T07:20:16.997Z,102195.78
2023-01-29T07:22:20.995Z,102193.19
2023-01-29T07:24:24.944Z,102193.19
2023-01-29T07:26:28.549Z,102191.47
2023-01-29T07:28:31.973Z,102188.88
2023-01-29T07:30:35.848Z,102189.75
2023-01-29T07:32:40.961Z,102181.16
2023-01-29T07:34:44.671Z,102177.72
2023-01-29T07:36:48.107Z,102183.75
2023-01-29T07:38:51.824Z,102179.47
2023-01-29T07:40:55.299Z,102170.84
2023-01-29T07:43:02.043Z,102161.41
2023-01-29T07:45:06.118Z,102159.69
2023-01-29T07:47:09.313Z,102160.56
2023-01-29T07:49:13.901Z,102151.09
2023-01-29T07:51:18.596Z,102150.25
2023-01-29T07:53:22.244Z,102154.56
2023-01-29T07:55:25.615Z,102153.69
2023-01-29T07:57:30.596Z,102156.25
2023-01-29T07:59:34.097Z,102157.09
2023-01-29T08:01:37.179Z,102146.72
2023-01-29T08:03:40.647Z,102162.22
2023-01-29T08:05:46.375Z,102161.34
2023-01-29T08:08:06.152Z,102156.16
2023-01-29T08:10:11.110Z,102153.56
2023-01-29T08:12:14.366Z,102151.81
2023-01-29T08:14:17.840Z,102156.13
2023-01-29T08:16:21.089Z,102153.50
2023-01-29T08:18:24.247Z,102150.06
2023-01-29T08:20:27.509Z,102148.31
2023-01-29T08:22:32.062Z,102143.97
2023-01-29T08:24:47.663Z,102150.84
2023-01-29T08:26:57.628Z,102148.25
2023-01-29T08:29:01.080Z,102149.94
2023-01-29T08:31:04.468Z,102155.06
2023-01-29T08:33:07.870Z,102144.72
2023-01-29T08:35:11.056Z,102148.16
2023-01-29T08:37:14.249Z,102142.97
2023-01-29T08:39:18.726Z,102148.13
2023-01-29T08:41:21.884Z,102136.91
2023-01-29T08:43:25.029Z,102139.47
2023-01-29T08:45:28.569Z,102132.53
2023-01-29T08:47:31.775Z,102137.69
2023-01-29T08:49:34.926Z,102136.78
2023-01-29T08:51:38.206Z,102136.78
2023-01-29T08:53:42.113Z,102139.34
2023-01-29T08:55:47.394Z,102137.63
2023-01-29T08:57:50.927Z,102134.16
2023-01-29T08:59:54.341Z,102133.31
2023-01-29T09:01:57.620Z,102136.78
2023-01-29T09:04:00.795Z,102137.63
2023-01-29T09:06:04.540Z,102141.06
2023-01-29T09:08:08.916Z,102149.66
2023-01-29T09:10:13.467Z,102144.50
2023-01-29T09:12:18.060Z,102153.97
2023-01-29T09:14:21.285Z,102142.75
2023-01-29T09:16:24.449Z,102149.59
2023-01-29T09:18:27.650Z,102147.84
2023-01-29T09:20:31.046Z,102141.78
2023-01-29T09:22:34.667Z,102136.56
2023-01-29T09:24:37.826Z,102133.97
2023-01-29T09:26:41.027Z,102131.38
2023-01-29T09:28:45.664Z,102128.75
2023-01-29T09:30:48.946Z,102133.94
2023-01-29T09:32:53.932Z,102133.06
2023-01-29T09:34:57.545Z,102127.88
2023-01-29T09:37:05.947Z,102123.53
2023-01-29T09:39:09.889Z,102120.06
2023-01-29T09:41:28.789Z,102115.75
2023-01-29T09:43:44.167Z,102107.09
2023-01-29T09:45:57.257Z,102108.81
2023-01-29T09:48:03.379Z,102109.66
2023-01-29T09:50:08.882Z,102101.00
2023-01-29T09:52:18.641Z,102094.06
2023-01-29T09:54:26.846Z,102090.56
2023-01-29T09:56:30.480Z,102085.34
2023-01-29T09:58:36.173Z,102074.97
2023-01-29T10:00:47.315Z,102078.38
2023-01-29T10:03:12.233Z,102081.81
2023-01-29T10:05:30.877Z,102065.41
2023-01-29T10:07:55.636Z,102069.69
2023-01-29T10:10:13.235Z,102071.41
2023-01-29T10:12:28.461Z,102063.63
2023-01-29T10:14:40.093Z,102050.69
2023-01-29T10:16:55.988Z,102053.31
2023-01-29T10:19:31.339Z,102052.44
2023-01-29T10:22:03.052Z,102055.88
2023-01-29T10:24:21.074Z,102052.44
2023-01-29T10:26:28.473Z,102042.13
2023-01-29T10:28:38.008Z,102043.00
2023-01-29T10:30:45.689Z,102031.78
2023-01-29T10:32:50.526Z,102038.66
2023-01-29T10:34:59.914Z,102035.19
2023-01-29T10:37:15.584Z,102038.63
2023-01-29T10:39:20.594Z,102036.03
2023-01-29T10:41:44.069Z,102030.81
2023-01-29T10:43:55.839Z,102025.63
2023-01-29T10:46:10.833Z,102020.44
2023-01-29T10:48:45.942Z,102019.56
2023-01-29T10:50:53.731Z,102017.84
2023-01-29T10:53:13.422Z,102022.13
2023-01-29T10:55:29.319Z,102004.00
2023-01-29T10:57:50.117Z,101995.38
2023-01-29T11:00:07.193Z,102002.28
2023-01-29T11:02:15.975Z,101991.91
2023-01-29T11:04:19.699Z,102002.28
2023-01-29T11:06:29.101Z,101996.22
2023-01-29T11:08:38.524Z,101991.88
2023-01-29T11:10:47.303Z,101990.09
2023-01-29T11:12:51.748Z,101982.25
2023-01-29T11:15:00.105Z,101983.09
2023-01-29T11:17:03.939Z,101989.97
2023-01-29T11:19:07.895Z,101985.63
2023-01-29T11:21:12.752Z,101980.44
2023-01-29T11:23:28.844Z,101976.97
2023-01-29T11:25:34.246Z,101976.09
2023-01-29T11:27:44.419Z,101985.59
2023-01-29T11:29:49.446Z,101974.34
2023-01-29T11:31:54.657Z,101974.34
2023-01-29T11:34:07.439Z,101961.38
2023-01-29T11:36:34.355Z,101969.16
2023-01-29T11:38:38.948Z,101958.78
2023-01-29T11:40:42.316Z,101958.78
2023-01-29T11:42:46.019Z,101954.44
2023-01-29T11:44:49.488Z,101939.72
2023-01-29T11:46:52.739Z,101942.28
2023-01-29T11:48:59.235Z,101938.81
2023-01-29T11:51:11.829Z,101934.44
2023-01-29T11:53:33.238Z,101937.00
2023-01-29T11:55:50.216Z,101927.50
2023-01-29T11:57:59.410Z,101932.63
2023-01-29T12:00:06.533Z,101930.81
2023-01-29T12:02:26.739Z,101927.31
2023-01-29T12:04:31.539Z,101929.00
2023-01-29T12:06:38.615Z,101929.00
2023-01-29T12:08:41.946Z,101920.34
2023-01-29T12:10:46.582Z,101914.31
2023-01-29T12:12:49.920Z,101903.94
2023-01-29T12:15:05.398Z,101906.50
2023-01-29T12:17:15.096Z,101892.66
2023-01-29T12:19:29.290Z,101892.66
2023-01-29T12:21:36.960Z,101891.78
2023-01-29T12:23:48.662Z,101885.72
2023-01-29T12:26:02.893Z,101886.59
2023-01-29T12:28:16.932Z,101875.38
2023-01-29T12:30:23.599Z,101866.75
2023-01-29T12:32:33.728Z,101863.28
2023-01-29T12:34:46.451Z,101866.69
2023-01-29T12:36:54.077Z,101859.75
2023-01-29T12:38:59.068Z,101868.34
2023-01-29T12:41:09.608Z,101851.03
2023-01-29T12:43:18.030Z,101849.25
2023-01-29T12:45:24.088Z,101847.56
2023-01-29T12:47:33.471Z,101835.44
2023-01-29T12:49:40.777Z,101827.63
2023-01-29T12:51:54.340Z,101827.59
2023-01-29T12:54:01.077Z,101823.28
2023-01-29T12:56:12.237Z,101823.28
2023-01-29T12:58:21.480Z,101824.09
2023-01-29T13:00:28.298Z,101818.00
2023-01-29T13:02:39.567Z,101802.44
2023-01-29T13:04:47.350Z,101808.47
2023-01-29T13:06:56.377Z,101807.69
2023-01-29T13:09:01.189Z,101802.53
2023-01-29T13:11:11.778Z,101812.91
2023-01-29T13:13:20.808Z,101799.09
2023-01-29T13:15:28.557Z,101794.78
2023-01-29T13:17:36.474Z,101788.75
2023-01-29T13:19:45.272Z,101781.00
2023-01-29T13:21:49.307Z,101783.56
2023-01-29T13:23:54.689Z,101777.53
2023-01-29T13:25:58.943Z,101786.13
2023-01-29T13:28:04.143Z,101774.91
2023-01-29T13:30:08.659Z,101790.47
2023-01-29T13:32:11.917Z,101777.50
2023-01-29T13:34:16.762Z,101771.44
2023-01-29T13:36:25.313Z,101778.31
2023-01-29T13:38:32.305Z,101776.50
2023-01-29T13:40:36.029Z,101753.19
2023-01-29T13:42:43.736Z,101766.16
2023-01-29T13:44:51.492Z,101763.53
2023-01-29T13:46:58.929Z,101759.19
2023-01-29T13:49:05.003Z,101755.72
2023-01-29T13:51:16.934Z,101753.97
2023-01-29T13:53:25.050Z,101751.38
2023-01-29T13:55:32.529Z,101747.94
2023-01-29T13:57:52.722Z,101743.63
2023-01-29T13:59:59.029Z,101751.44
2023-01-29T14:02:20.464Z,101743.72
2023-01-29T14:04:26.795Z,101740.31
2023-01-29T14:06:50.827Z,101741.19
2023-01-29T14:08:54.093Z,101733.44
2023-01-29T14:11:35.870Z,101735.19
2023-01-29T14:13:39.137Z,101719.72
2023-01-29T14:15:43.711Z,101710.25
2023-01-29T14:18:03.803Z,101707.66
2023-01-29T14:20:19.922Z,101713.75
2023-01-29T14:22:26.734Z,101700.81
2023-01-29T14:24:32.089Z,101697.41
2023-01-29T14:26:45.985Z,101692.22
2023-01-29T14:28:59.673Z,101692.22
2023-01-29T14:31:05.154Z,101681.91
2023-01-29T14:33:26.547Z,101683.63
2023-01-29T14:35:33.756Z,101684.47
2023-01-29T14:37:40.318Z,101676.66
2023-01-29T14:39:45.984Z,101676.66
2023-01-29T14:41:51.717Z,101678.38
2023-01-29T14:44:36.681Z,101678.34
2023-01-29T14:46:45.949Z,101688.69
2023-01-29T14:48:49.955Z,101674.81
2023-01-29T14:50:59.135Z,101680.88
2023-01-29T14:53:07.725Z,101672.28
2023-01-29T14:55:20.301Z,101674.88
2023-01-29T14:57:24.781Z,101671.50
2023-01-29T14:59:34.028Z,101668.94
2023-01-29T15:01:39.364Z,101674.16
2023-01-29T15:03:48.960Z,101661.25
2023-01-29T15:05:53.808Z,101658.69
2023-01-29T15:08:01.602Z,101654.44
2023-01-29T15:10:22.383Z,101652.75
2023-01-29T15:12:31.196Z,101653.63
2023-01-29T15:14:37.385Z,101656.25
2023-01-29T15:16:53.819Z,101657.94
2023-01-29T15:19:14.128Z,101655.34
2023-01-29T15:21:19.104Z,101645.88
2023-01-29T15:23:26.543Z,101644.16
2023-01-29T15:25:33.878Z,101645.94
2023-01-29T15:27:37.120Z,101647.69
2023-01-29T15:29:41.298Z,101636.50
2023-01-29T15:31:47.059Z,101629.59
2023-01-29T15:33:55.158Z,101621.88
2023-01-29T15:36:09.519Z,101608.09
2023-01-29T15:38:20.672Z,101615.06
2023-01-29T15:40:24.100Z,101614.19
2023-01-29T15:42:28.930Z,101612.50
2023-01-29T15:44:32.115Z,101609.94
2023-01-29T15:46:39.005Z,101597.00
2023-01-29T15:48:44.687Z,101590.13
2023-01-29T15:50:49.131Z,101579.81
2023-01-29T15:52:55.709Z,101575.50
2023-01-29T15:55:04.350Z,101577.22
2023-01-29T15:57:08.205Z,101584.09
2023-01-29T15:59:18.631Z,101574.63
2023-01-29T16:01:22.175Z,101578.91
2023-01-29T16:03:28.211Z,101573.78
2023-01-29T16:05:33.100Z,101570.31
2023-01-29T16:07:37.906Z,101571.19
2023-01-29T16:09:44.557Z,101573.81
2023-01-29T16:11:50.507Z,101572.91
2023-01-29T16:13:54.567Z,101570.31
2023-01-29T16:15:59.945Z,101562.56
2023-01-29T16:18:06.622Z,101572.91
2023-01-29T16:20:32.761Z,101561.66
2023-01-29T16:22:38.011Z,101566.00
2023-01-29T16:24:42.609Z,101568.56
2023-01-29T16:26:48.793Z,101565.16
2023-01-29T16:28:52.461Z,101560.81
2023-01-29T16:31:02.706Z,101570.31
2023-01-29T16:33:09.645Z,101557.41
2023-01-29T16:35:18.018Z,101558.25
2023-01-29T16:37:25.283Z,101556.56
2023-01-29T16:39:33.988Z,101557.41
2023-01-29T16:41:39.430Z,101545.41
2023-01-29T16:43:54.465Z,101554.94
2023-01-29T16:46:04.913Z,101544.63
2023-01-29T16:48:27.231Z,101541.19
2023-01-29T16:50:46.245Z,101541.19
2023-01-29T16:52:58.222Z,101545.53
2023-01-29T16:55:16.479Z,101534.38
2023-01-29T16:57:25.990Z,101528.34
2023-01-29T16:59:34.756Z,101514.56
2023-01-29T17:01:38.591Z,101525.78
2023-01-29T17:03:43.377Z,101521.50
2023-01-29T17:05:51.133Z,101509.44
2023-01-29T17:08:09.973Z,101517.19
2023-01-29T17:10:20.442Z,101520.72
2023-01-29T17:12:27.633Z,101496.56
2023-01-29T17:14:33.208Z,101496.59
2023-01-29T17:16:47.927Z,101497.44
2023-01-29T17:18:51.199Z,101504.38
2023-01-29T17:20:54.391Z,101506.16
2023-01-29T17:22:57.576Z,101495.84
2023-01-29T17:25:00.751Z,101482.94
2023-01-29T17:27:03.963Z,101490.72
2023-01-29T17:29:12.189Z,101484.69
2023-01-29T17:31:15.433Z,101480.44
2023-01-29T17:33:21.787Z,101481.31
2023-01-29T17:35:24.931Z,101481.34
2023-01-29T17:37:28.077Z,101470.19
2023-01-29T17:39:31.897Z,101477.09
2023-01-29T17:41:35.127Z,101471.97
2023-01-29T17:43:41.434Z,101469.41
2023-01-29T17:45:46.056Z,101466.00
2023-01-29T17:47:49.287Z,101461.78
2023-01-29T17:49:52.502Z,101453.22
2023-01-29T17:51:57.423Z,101448.97
2023-01-29T17:54:00.565Z,101458.53
2023-01-29T17:56:03.926Z,101439.63
2023-01-29T17:58:07.104Z,101442.25
2023-01-29T18:00:17.798Z,101443.19
2023-01-29T18:02:29.217Z,101435.44
2023-01-29T18:04:33.063Z,101434.63
2023-01-29T18:06:36.676Z,101427.75
2023-01-29T18:08:40.897Z,101421.75
2023-01-29T18:10:44.026Z,101421.75
2023-01-29T18:12:47.917Z,101414.88
2023-01-29T18:14:51.092Z,101415.72
2023-01-29T18:16:57.175Z,101420.94
2023-01-29T18:19:01.814Z,101415.75
2023-01-29T18:21:05.385Z,101398.53
2023-01-29T18:23:09.192Z,101404.59
2023-01-29T18:25:12.395Z,101380.44
2023-01-29T18:27:15.584Z,101373.56
2023-01-29T18:29:18.775Z,101368.38
2023-01-29T18:31:21.923Z,101377.91
2023-01-29T18:33:25.887Z,101358.09
2023-01-29T18:35:30.508Z,101363.28
2023-01-29T18:37:33.988Z,101364.97
2023-01-29T18:39:37.192Z,101359.78
2023-01-29T18:41:40.353Z,101344.28
2023-01-29T18:43:44.166Z,101352.91
2023-01-29T18:45:48.799Z,101351.19
2023-01-29T18:47:52.021Z,101344.28
2023-01-29T18:49:55.170Z,101343.41
2023-01-29T18:51:59.720Z,101342.53
2023-01-29T18:54:04.009Z,101335.63
2023-01-29T18:56:08.165Z,101321.81
2023-01-29T18:58:26.380Z,101314.84
2023-01-29T19:00:32.730Z,101317.44
2023-01-29T19:02:36.240Z,101320.88
2023-01-29T19:04:39.376Z,101313.09
2023-01-29T19:06:42.508Z,101316.56
2023-01-29T19:08:47.469Z,101307.91
2023-01-29T19:10:50.660Z,101323.44
2023-01-29T19:12:53.818Z,101295.00
2023-01-29T19:14:56.943Z,101294.16
2023-01-29T19:17:01.592Z,101288.09
2023-01-29T19:19:05.041Z,101287.25
2023-01-29T19:21:10.130Z,101281.25
2023-01-29T19:23:13.356Z,101286.41
2023-01-29T19:25:19.686Z,101291.56
2023-01-29T19:27:23.115Z,101272.63
2023-01-29T19:29:26.356Z,101264.81
2023-01-29T19:31:31.814Z,101255.31
2023-01-29T19:33:35.066Z,101264.81
2023-01-29T19:35:38.243Z,101268.22
2023-01-29T19:37:41.419Z,101265.66
2023-01-29T19:39:44.610Z,101253.56
2023-01-29T19:41:49.223Z,101254.38
2023-01-29T19:43:53.468Z,101232.00
2023-01-29T19:45:59.215Z,101236.31
2023-01-29T19:48:02.323Z,101228.50
2023-01-29T19:50:06.127Z,101233.66
2023-01-29T19:52:14.849Z,101230.22
2023-01-29T19:54:19.783Z,101225.88
2023-01-29T19:56:22.962Z,101231.06
2023-01-29T19:58:27.880Z,101230.22
2023-01-29T20:00:31.109Z,101232.81
2023-01-29T20:02:34.327Z,101218.16
2023-01-29T20:04:37.609Z,101229.38
2023-01-29T20:06:41.243Z,101209.50
2023-01-29T20:08:46.541Z,101229.38
2023-01-29T20:10:50.131Z,101211.28
2023-01-29T20:12:53.279Z,101206.97
2023-01-29T20:14:57.908Z,101210.44
2023-01-29T20:17:01.036Z,101218.16
2023-01-29T20:19:14.504Z,101206.13
2023-01-29T20:21:20.746Z,101199.16
2023-01-29T20:23:37.068Z,101192.28
2023-01-29T20:25:41.752Z,101196.63
2023-01-29T20:27:44.944Z,101193.13
2023-01-29T20:29:48.214Z,101183.63
2023-01-29T20:31:53.475Z,101181.00
2023-01-29T20:33:56.757Z,101181.88
2023-01-29T20:36:01.424Z,101193.91
2023-01-29T20:38:05.459Z,101172.31
2023-01-29T20:40:10.048Z,101164.56
2023-01-29T20:42:13.529Z,101153.31
2023-01-29T20:44:16.953Z,101150.72
2023-01-29T20:46:20.779Z,101150.69
2023-01-29T20:48:26.173Z,101152.44
2023-01-29T20:50:29.537Z,101156.72
2023-01-29T20:52:32.850Z,101145.47
2023-01-29T20:54:37.207Z,101150.66
2023-01-29T20:56:43.578Z,101135.94
2023-01-29T20:58:48.078Z,101138.53
2023-01-29T21:00:51.280Z,101141.06
2023-01-29T21:02:54.407Z,101135.00
2023-01-29T21:04:59.321Z,101127.19
2023-01-29T21:07:02.622Z,101116.81
2023-01-29T21:09:05.875Z,101117.66
2023-01-29T21:11:10.410Z,101102.97
2023-01-29T21:13:13.956Z,101096.91
2023-01-29T21:15:17.116Z,101108.97
2023-01-29T21:17:20.311Z,101115.84
2023-01-29T21:19:23.480Z,101096.81
2023-01-29T21:21:28.387Z,101098.53
2023-01-29T21:23:31.794Z,101093.34
2023-01-29T21:25:35.175Z,101086.38
2023-01-29T21:27:38.542Z,101083.75
2023-01-29T21:29:41.771Z,101074.25
2023-01-29T21:31:44.945Z,101069.06
2023-01-29T21:33:48.102Z,101069.91
2023-01-29T21:35:58.666Z,101071.63
2023-01-29T21:38:03.221Z,101061.22
2023-01-29T21:40:07.963Z,101063.81
2023-01-29T21:42:28.499Z,101062.03
2023-01-29T21:44:32.982Z,101074.06
2023-01-29T21:46:36.741Z,101055.06
2023-01-29T21:48:40.502Z,101050.72
2023-01-29T21:50:43.695Z,101053.28
2023-01-29T21:52:46.917Z,101055.78
2023-01-29T21:54:51.450Z,101059.31
2023-01-29T21:56:54.546Z,101066.09
2023-01-29T21:58:59.023Z,101051.38
2023-01-29T22:01:18.100Z,101051.31
2023-01-29T22:03:25.439Z,101047.78
2023-01-29T22:05:29.308Z,101050.34
2023-01-29T22:07:32.580Z,101038.25
2023-01-29T22:09:35.944Z,101021.81
2023-01-29T22:11:41.323Z,101013.94
2023-01-29T22:13:44.518Z,101020.03
2023-01-29T22:15:47.673Z,101006.19
2023-01-29T22:17:51.192Z,101017.44
2023-01-29T22:19:54.572Z,100982.06
2023-01-29T22:21:57.809Z,100982.19
2023-01-29T22:24:00.970Z,100989.13
2023-01-29T22:26:04.764Z,100995.25
2023-01-29T22:28:09.296Z,101003.06
2023-01-29T22:30:13.740Z,100991.03
2023-01-29T22:32:16.942Z,100980.66
2023-01-29T22:34:20.105Z,100971.28
2023-01-29T22:36:23.234Z,100967.03
2023-01-29T22:38:26.583Z,100961.88
2023-01-29T22:40:29.736Z,100961.88
2023-01-29T22:42:32.888Z,100945.50
2023-01-29T22:44:37.346Z,100950.66
2023-01-29T22:46:40.689Z,100934.28
2023-01-29T22:48:43.837Z,100923.03
2023-01-29T22:50:53.788Z,100929.91
2023-01-29T22:52:56.968Z,100918.66
2023-01-29T22:55:00.178Z,100906.63
2023-01-29T22:57:03.343Z,100901.38
2023-01-29T22:59:06.451Z,100883.28
2023-01-29T23:01:11.013Z,100888.44
2023-01-29T23:03:14.145Z,100878.91
2023-01-29T23:05:18.641Z,100874.56
2023-01-29T23:07:21.866Z,100871.94
2023-01-29T23:09:25.102Z,100853.81
2023-01-29T23:11:28.270Z,100834.00
2023-01-29T23:13:31.365Z,100832.22
2023-01-29T23:15:34.509Z,100828.72
2023-01-29T23:17:39.706Z,100825.25
2023-01-29T23:19:42.940Z,100820.91
2023-01-29T23:21:46.132Z,100804.53
2023-01-29T23:23:52.296Z,100800.16
2023-01-29T23:26:16.033Z,100789.78
2023-01-29T23:28:19.178Z,100775.06
2023-01-29T23:30:22.647Z,100768.06
2023-01-29T23:32:26.025Z,100761.22
2023-01-29T23:34:30.624Z,100774.94
2023-01-29T23:36:33.764Z,100767.13
2023-01-29T23:38:36.909Z,100763.63
2023-01-29T23:40:40.166Z,100766.19
2023-01-29T23:42:43.297Z,100765.28
2023-01-29T23:44:46.491Z,100751.44
2023-01-29T23:46:49.784Z,100757.41
2023-01-29T23:48:53.005Z,100748.75
2023-01-29T23:50:57.565Z,100757.28
2023-01-29T23:53:00.848Z,100765.84
2023-01-29T23:55:04.081Z,100765.72
2023-01-29T23:57:07.290Z,100741.47
2023-01-29T23:59:10.592Z,100750.06
